sensor_id;sensor_type;location;lat;lon;timestamp;P1;durP1;ratioP1;P2;durP2;ratioP2
9459;SDS011;4768;42.664;23.240;2022-07-04T00:01:41;8.37;;;7.53;;
9459;SDS011;4768;42.664;23.240;2022-07-04T00:04:08;8.70;;;6.80;;
9459;SDS011;4768;42.664;23.240;2022-07-04T00:06:35;8.20;;;7.40;;
9459;SDS011;4768;42.664;23.240;2022-07-04T00:09:03;9.50;;;8.10;;
9459;SDS011;4768;42.664;23.240;2022-07-04T00:11:30;9.63;;;7.80;;
9459;SDS011;4768;42.664;23.240;2022-07-04T00:13:57;7.87;;;7.07;;
9459;SDS011;4768;42.664;23.240;2022-07-04T00:16:23;9.57;;;7.67;;
9459;SDS011;4768;42.664;23.240;2022-07-04T00:18:50;8.37;;;7.13;;
9459;SDS011;4768;42.664;23.240;2022-07-04T00:21:17;7.77;;;6.60;;
9459;SDS011;4768;42.664;23.240;2022-07-04T00:23:44;8.57;;;6.80;;
9459;SDS011;4768;42.664;23.240;2022-07-04T00:26:12;7.73;;;6.93;;
9459;SDS011;4768;42.664;23.240;2022-07-04T00:28:38;7.37;;;6.67;;
9459;SDS011;4768;42.664;23.240;2022-07-04T00:31:05;9.37;;;7.00;;
9459;SDS011;4768;42.664;23.240;2022-07-04T00:33:32;9.23;;;6.43;;
9459;SDS011;4768;42.664;23.240;2022-07-04T00:35:59;9.77;;;6.77;;
9459;SDS011;4768;42.664;23.240;2022-07-04T00:38:26;7.23;;;6.33;;
9459;SDS011;4768;42.664;23.240;2022-07-04T00:40:53;8.37;;;6.20;;
9459;SDS011;4768;42.664;23.240;2022-07-04T00:43:22;9.47;;;6.53;;
9459;SDS011;4768;42.664;23.240;2022-07-04T00:45:49;8.67;;;6.23;;
9459;SDS011;4768;42.664;23.240;2022-07-04T00:48:16;6.73;;;6.03;;
9459;SDS011;4768;42.664;23.240;2022-07-04T00:50:43;7.40;;;6.40;;
9459;SDS011;4768;42.664;23.240;2022-07-04T00:53:11;8.50;;;6.33;;
9459;SDS011;4768;42.664;23.240;2022-07-04T00:55:38;7.80;;;6.80;;
9459;SDS011;4768;42.664;23.240;2022-07-04T00:58:05;6.73;;;6.03;;
9459;SDS011;4768;42.664;23.240;2022-07-04T01:00:33;9.17;;;6.40;;
9459;SDS011;4768;42.664;23.240;2022-07-04T01:03:00;6.17;;;5.57;;
9459;SDS011;4768;42.664;23.240;2022-07-04T01:05:27;6.83;;;6.13;;
9459;SDS011;4768;42.664;23.240;2022-07-04T01:07:54;7.23;;;6.23;;
9459;SDS011;4768;42.664;23.240;2022-07-04T01:10:21;7.87;;;5.77;;
9459;SDS011;4768;42.664;23.240;2022-07-04T01:12:47;6.33;;;5.57;;
9459;SDS011;4768;42.664;23.240;2022-07-04T01:15:14;7.83;;;6.67;;
9459;SDS011;4768;42.664;23.240;2022-07-04T01:17:42;6.40;;;5.80;;
9459;SDS011;4768;42.664;23.240;2022-07-04T01:20:12;9.40;;;6.13;;
9459;SDS011;4768;42.664;23.240;2022-07-04T01:22:39;7.00;;;5.40;;
9459;SDS011;4768;42.664;23.240;2022-07-04T01:25:07;5.40;;;4.87;;
9459;SDS011;4768;42.664;23.240;2022-07-04T01:27:34;5.87;;;5.27;;
9459;SDS011;4768;42.664;23.240;2022-07-04T01:30:01;5.10;;;4.60;;
9459;SDS011;4768;42.664;23.240;2022-07-04T01:32:28;5.27;;;4.73;;
9459;SDS011;4768;42.664;23.240;2022-07-04T01:34:55;5.77;;;4.83;;
9459;SDS011;4768;42.664;23.240;2022-07-04T01:37:23;10.70;;;5.40;;
9459;SDS011;4768;42.664;23.240;2022-07-04T01:39:49;5.90;;;5.23;;
9459;SDS011;4768;42.664;23.240;2022-07-04T01:42:16;6.27;;;5.53;;
9459;SDS011;4768;42.664;23.240;2022-07-04T01:44:43;6.33;;;4.77;;
9459;SDS011;4768;42.664;23.240;2022-07-04T01:47:10;6.27;;;5.33;;
9459;SDS011;4768;42.664;23.240;2022-07-04T01:49:36;5.23;;;4.60;;
9459;SDS011;4768;42.664;23.240;2022-07-04T01:52:03;8.40;;;5.23;;
9459;SDS011;4768;42.664;23.240;2022-07-04T01:54:32;5.30;;;4.80;;
9459;SDS011;4768;42.664;23.240;2022-07-04T01:56:59;5.13;;;4.63;;
9459;SDS011;4768;42.664;23.240;2022-07-04T01:59:25;5.43;;;4.90;;
9459;SDS011;4768;42.664;23.240;2022-07-04T02:02:06;5.87;;;5.10;;
9459;SDS011;4768;42.664;23.240;2022-07-04T02:04:33;5.97;;;4.67;;
9459;SDS011;4768;42.664;23.240;2022-07-04T02:07:00;5.57;;;4.67;;
9459;SDS011;4768;42.664;23.240;2022-07-04T02:09:27;6.77;;;4.93;;
9459;SDS011;4768;42.664;23.240;2022-07-04T02:11:57;4.80;;;4.40;;
9459;SDS011;4768;42.664;23.240;2022-07-04T02:14:41;6.93;;;4.90;;
9459;SDS011;4768;42.664;23.240;2022-07-04T02:17:08;6.10;;;4.87;;
9459;SDS011;4768;42.664;23.240;2022-07-04T02:19:35;6.80;;;4.37;;
9459;SDS011;4768;42.664;23.240;2022-07-04T02:22:02;7.13;;;4.57;;
9459;SDS011;4768;42.664;23.240;2022-07-04T02:24:29;4.63;;;4.10;;
9459;SDS011;4768;42.664;23.240;2022-07-04T02:26:58;8.07;;;4.13;;
9459;SDS011;4768;42.664;23.240;2022-07-04T02:29:25;8.97;;;4.20;;
9459;SDS011;4768;42.664;23.240;2022-07-04T02:31:51;6.97;;;4.53;;
9459;SDS011;4768;42.664;23.240;2022-07-04T02:34:18;7.30;;;4.53;;
9459;SDS011;4768;42.664;23.240;2022-07-04T02:36:45;5.30;;;4.47;;
9459;SDS011;4768;42.664;23.240;2022-07-04T02:39:12;6.03;;;5.10;;
9459;SDS011;4768;42.664;23.240;2022-07-04T02:41:39;4.80;;;4.40;;
9459;SDS011;4768;42.664;23.240;2022-07-04T02:44:07;13.30;;;4.80;;
9459;SDS011;4768;42.664;23.240;2022-07-04T02:46:34;4.43;;;3.90;;
9459;SDS011;4768;42.664;23.240;2022-07-04T02:49:01;5.40;;;4.37;;
9459;SDS011;4768;42.664;23.240;2022-07-04T02:51:29;5.13;;;4.50;;
9459;SDS011;4768;42.664;23.240;2022-07-04T02:53:56;7.50;;;4.60;;
9459;SDS011;4768;42.664;23.240;2022-07-04T02:56:23;5.63;;;4.70;;
9459;SDS011;4768;42.664;23.240;2022-07-04T02:58:50;4.90;;;4.37;;
9459;SDS011;4768;42.664;23.240;2022-07-04T03:01:18;6.00;;;4.90;;
9459;SDS011;4768;42.664;23.240;2022-07-04T03:03:45;5.33;;;4.70;;
9459;SDS011;4768;42.664;23.240;2022-07-04T03:06:13;7.63;;;5.00;;
9459;SDS011;4768;42.664;23.240;2022-07-04T03:08:40;5.63;;;4.63;;
9459;SDS011;4768;42.664;23.240;2022-07-04T03:11:06;4.80;;;4.30;;
9459;SDS011;4768;42.664;23.240;2022-07-04T03:13:33;4.63;;;4.13;;
9459;SDS011;4768;42.664;23.240;2022-07-04T03:16:00;5.13;;;4.40;;
9459;SDS011;4768;42.664;23.240;2022-07-04T03:18:28;6.00;;;4.70;;
9459;SDS011;4768;42.664;23.240;2022-07-04T03:20:55;6.90;;;4.57;;
9459;SDS011;4768;42.664;23.240;2022-07-04T03:23:22;5.03;;;4.40;;
9459;SDS011;4768;42.664;23.240;2022-07-04T03:25:48;5.33;;;4.27;;
9459;SDS011;4768;42.664;23.240;2022-07-04T03:28:15;4.73;;;4.00;;
9459;SDS011;4768;42.664;23.240;2022-07-04T03:30:42;4.90;;;4.40;;
9459;SDS011;4768;42.664;23.240;2022-07-04T03:33:09;9.00;;;4.20;;
9459;SDS011;4768;42.664;23.240;2022-07-04T03:35:37;6.53;;;5.00;;
9459;SDS011;4768;42.664;23.240;2022-07-04T03:38:03;4.63;;;4.17;;
9459;SDS011;4768;42.664;23.240;2022-07-04T03:40:31;4.80;;;4.10;;
9459;SDS011;4768;42.664;23.240;2022-07-04T03:43:00;7.03;;;4.47;;
9459;SDS011;4768;42.664;23.240;2022-07-04T03:45:27;4.60;;;4.20;;
9459;SDS011;4768;42.664;23.240;2022-07-04T03:47:54;4.77;;;4.20;;
9459;SDS011;4768;42.664;23.240;2022-07-04T03:50:21;8.10;;;4.23;;
9459;SDS011;4768;42.664;23.240;2022-07-04T03:52:50;5.00;;;4.50;;
9459;SDS011;4768;42.664;23.240;2022-07-04T03:55:17;7.37;;;5.07;;
9459;SDS011;4768;42.664;23.240;2022-07-04T03:57:44;5.20;;;4.70;;
9459;SDS011;4768;42.664;23.240;2022-07-04T04:00:11;8.43;;;4.33;;
9459;SDS011;4768;42.664;23.240;2022-07-04T04:02:39;5.13;;;4.23;;
9459;SDS011;4768;42.664;23.240;2022-07-04T04:05:06;7.10;;;4.30;;
9459;SDS011;4768;42.664;23.240;2022-07-04T04:07:52;7.47;;;4.40;;
9459;SDS011;4768;42.664;23.240;2022-07-04T04:10:19;6.07;;;3.93;;
9459;SDS011;4768;42.664;23.240;2022-07-04T04:12:46;7.30;;;4.23;;
9459;SDS011;4768;42.664;23.240;2022-07-04T04:15:13;4.13;;;3.70;;
9459;SDS011;4768;42.664;23.240;2022-07-04T04:17:39;4.90;;;3.90;;
9459;SDS011;4768;42.664;23.240;2022-07-04T04:20:07;4.43;;;3.53;;
9459;SDS011;4768;42.664;23.240;2022-07-04T04:22:35;5.53;;;3.97;;
9459;SDS011;4768;42.664;23.240;2022-07-04T04:25:03;6.43;;;4.20;;
9459;SDS011;4768;42.664;23.240;2022-07-04T04:27:31;4.37;;;3.87;;
9459;SDS011;4768;42.664;23.240;2022-07-04T04:29:57;4.60;;;3.87;;
9459;SDS011;4768;42.664;23.240;2022-07-04T04:32:24;4.53;;;3.90;;
9459;SDS011;4768;42.664;23.240;2022-07-04T04:34:53;4.97;;;3.90;;
9459;SDS011;4768;42.664;23.240;2022-07-04T04:37:20;5.93;;;4.47;;
9459;SDS011;4768;42.664;23.240;2022-07-04T04:39:47;4.57;;;3.70;;
9459;SDS011;4768;42.664;23.240;2022-07-04T04:42:15;3.97;;;3.57;;
9459;SDS011;4768;42.664;23.240;2022-07-04T04:44:42;5.87;;;3.97;;
9459;SDS011;4768;42.664;23.240;2022-07-04T04:47:08;8.00;;;4.10;;
9459;SDS011;4768;42.664;23.240;2022-07-04T04:49:35;7.50;;;3.77;;
9459;SDS011;4768;42.664;23.240;2022-07-04T04:52:02;4.50;;;3.50;;
9459;SDS011;4768;42.664;23.240;2022-07-04T04:54:31;6.17;;;3.90;;
9459;SDS011;4768;42.664;23.240;2022-07-04T04:56:58;4.33;;;3.80;;
9459;SDS011;4768;42.664;23.240;2022-07-04T04:59:26;4.57;;;3.60;;
9459;SDS011;4768;42.664;23.240;2022-07-04T05:01:54;4.80;;;3.80;;
9459;SDS011;4768;42.664;23.240;2022-07-04T05:04:21;7.30;;;3.40;;
9459;SDS011;4768;42.664;23.240;2022-07-04T05:06:47;5.63;;;3.20;;
9459;SDS011;4768;42.664;23.240;2022-07-04T05:09:14;6.63;;;3.50;;
9459;SDS011;4768;42.664;23.240;2022-07-04T05:11:41;5.00;;;4.00;;
9459;SDS011;4768;42.664;23.240;2022-07-04T05:14:08;6.57;;;4.40;;
9459;SDS011;4768;42.664;23.240;2022-07-04T05:16:36;12.53;;;4.27;;
9459;SDS011;4768;42.664;23.240;2022-07-04T05:19:03;4.93;;;4.00;;
9459;SDS011;4768;42.664;23.240;2022-07-04T05:21:29;6.00;;;4.13;;
9459;SDS011;4768;42.664;23.240;2022-07-04T05:23:56;5.23;;;4.10;;
9459;SDS011;4768;42.664;23.240;2022-07-04T05:26:23;7.23;;;3.93;;
9459;SDS011;4768;42.664;23.240;2022-07-04T05:28:50;8.47;;;4.80;;
9459;SDS011;4768;42.664;23.240;2022-07-04T05:31:17;6.77;;;4.20;;
9459;SDS011;4768;42.664;23.240;2022-07-04T05:33:45;4.73;;;4.23;;
9459;SDS011;4768;42.664;23.240;2022-07-04T05:36:11;5.70;;;3.97;;
9459;SDS011;4768;42.664;23.240;2022-07-04T05:38:38;4.83;;;3.80;;
9459;SDS011;4768;42.664;23.240;2022-07-04T05:41:05;7.15;;;4.15;;
9459;SDS011;4768;42.664;23.240;2022-07-04T05:43:32;7.37;;;4.00;;
9459;SDS011;4768;42.664;23.240;2022-07-04T05:45:58;3.63;;;3.33;;
9459;SDS011;4768;42.664;23.240;2022-07-04T05:48:25;4.65;;;3.95;;
9459;SDS011;4768;42.664;23.240;2022-07-04T05:50:53;5.05;;;4.30;;
9459;SDS011;4768;42.664;23.240;2022-07-04T05:53:20;4.10;;;3.67;;
9459;SDS011;4768;42.664;23.240;2022-07-04T05:55:46;8.82;;;4.13;;
9459;SDS011;4768;42.664;23.240;2022-07-04T05:58:13;5.70;;;4.18;;
9459;SDS011;4768;42.664;23.240;2022-07-04T06:00:41;5.97;;;4.20;;
9459;SDS011;4768;42.664;23.240;2022-07-04T06:03:08;8.77;;;4.28;;
9459;SDS011;4768;42.664;23.240;2022-07-04T06:05:34;6.90;;;4.40;;
9459;SDS011;4768;42.664;23.240;2022-07-04T06:08:03;6.38;;;4.47;;
9459;SDS011;4768;42.664;23.240;2022-07-04T06:10:30;7.90;;;4.45;;
9459;SDS011;4768;42.664;23.240;2022-07-04T06:12:58;7.60;;;4.72;;
9459;SDS011;4768;42.664;23.240;2022-07-04T06:15:25;7.15;;;5.03;;
9459;SDS011;4768;42.664;23.240;2022-07-04T06:17:52;5.30;;;4.75;;
9459;SDS011;4768;42.664;23.240;2022-07-04T06:20:18;8.23;;;4.47;;
9459;SDS011;4768;42.664;23.240;2022-07-04T06:22:46;5.35;;;4.47;;
9459;SDS011;4768;42.664;23.240;2022-07-04T06:25:16;8.38;;;4.25;;
9459;SDS011;4768;42.664;23.240;2022-07-04T06:27:44;9.13;;;4.63;;
9459;SDS011;4768;42.664;23.240;2022-07-04T06:30:12;4.47;;;4.05;;
9459;SDS011;4768;42.664;23.240;2022-07-04T06:32:43;6.30;;;4.80;;
9459;SDS011;4768;42.664;23.240;2022-07-04T06:35:11;6.40;;;4.70;;
9459;SDS011;4768;42.664;23.240;2022-07-04T06:37:55;8.65;;;5.05;;
9459;SDS011;4768;42.664;23.240;2022-07-04T06:40:23;6.07;;;5.32;;
9459;SDS011;4768;42.664;23.240;2022-07-04T06:42:50;8.55;;;4.72;;
9459;SDS011;4768;42.664;23.240;2022-07-04T06:45:17;8.07;;;4.50;;
9459;SDS011;4768;42.664;23.240;2022-07-04T06:47:44;6.45;;;4.43;;
9459;SDS011;4768;42.664;23.240;2022-07-04T06:50:11;8.38;;;5.15;;
9459;SDS011;4768;42.664;23.240;2022-07-04T06:52:38;6.97;;;5.40;;
9459;SDS011;4768;42.664;23.240;2022-07-04T06:55:05;7.15;;;5.32;;
9459;SDS011;4768;42.664;23.240;2022-07-04T06:57:34;7.53;;;5.07;;
9459;SDS011;4768;42.664;23.240;2022-07-04T07:00:01;7.80;;;5.43;;
9459;SDS011;4768;42.664;23.240;2022-07-04T07:02:29;8.15;;;5.50;;
9459;SDS011;4768;42.664;23.240;2022-07-04T07:04:56;9.40;;;5.35;;
9459;SDS011;4768;42.664;23.240;2022-07-04T07:07:23;12.55;;;5.32;;
9459;SDS011;4768;42.664;23.240;2022-07-04T07:09:52;8.77;;;5.20;;
9459;SDS011;4768;42.664;23.240;2022-07-04T07:12:19;9.27;;;5.05;;
9459;SDS011;4768;42.664;23.240;2022-07-04T07:14:47;11.55;;;5.10;;
9459;SDS011;4768;42.664;23.240;2022-07-04T07:17:14;6.38;;;4.60;;
9459;SDS011;4768;42.664;23.240;2022-07-04T07:19:41;8.25;;;4.80;;
9459;SDS011;4768;42.664;23.240;2022-07-04T07:22:08;8.75;;;5.22;;
9459;SDS011;4768;42.664;23.240;2022-07-04T07:24:35;7.00;;;4.78;;
9459;SDS011;4768;42.664;23.240;2022-07-04T07:27:02;7.43;;;4.50;;
9459;SDS011;4768;42.664;23.240;2022-07-04T07:29:29;9.25;;;4.38;;
9459;SDS011;4768;42.664;23.240;2022-07-04T07:31:58;9.20;;;4.28;;
9459;SDS011;4768;42.664;23.240;2022-07-04T07:34:25;6.35;;;4.28;;
9459;SDS011;4768;42.664;23.240;2022-07-04T07:36:51;6.30;;;4.18;;
9459;SDS011;4768;42.664;23.240;2022-07-04T07:39:18;5.10;;;3.88;;
9459;SDS011;4768;42.664;23.240;2022-07-04T07:41:45;4.40;;;3.75;;
9459;SDS011;4768;42.664;23.240;2022-07-04T07:44:12;5.88;;;3.35;;
9459;SDS011;4768;42.664;23.240;2022-07-04T07:46:39;6.18;;;3.42;;
9459;SDS011;4768;42.664;23.240;2022-07-04T07:49:07;3.95;;;3.33;;
9459;SDS011;4768;42.664;23.240;2022-07-04T07:51:34;6.47;;;3.00;;
9459;SDS011;4768;42.664;23.240;2022-07-04T07:54:01;6.25;;;3.42;;
9459;SDS011;4768;42.664;23.240;2022-07-04T07:56:28;5.18;;;3.45;;
9459;SDS011;4768;42.664;23.240;2022-07-04T07:58:55;6.40;;;3.83;;
9459;SDS011;4768;42.664;23.240;2022-07-04T08:01:21;8.15;;;3.80;;
9459;SDS011;4768;42.664;23.240;2022-07-04T08:03:48;3.88;;;3.50;;
9459;SDS011;4768;42.664;23.240;2022-07-04T08:06:33;6.72;;;3.35;;
9459;SDS011;4768;42.664;23.240;2022-07-04T08:09:00;4.93;;;3.20;;
9459;SDS011;4768;42.664;23.240;2022-07-04T08:11:27;4.00;;;3.10;;
9459;SDS011;4768;42.664;23.240;2022-07-04T08:13:54;7.18;;;3.83;;
9459;SDS011;4768;42.664;23.240;2022-07-04T08:16:21;5.10;;;3.95;;
9459;SDS011;4768;42.664;23.240;2022-07-04T08:18:48;5.80;;;3.45;;
9459;SDS011;4768;42.664;23.240;2022-07-04T08:21:14;5.25;;;4.18;;
9459;SDS011;4768;42.664;23.240;2022-07-04T08:23:42;3.90;;;3.47;;
9459;SDS011;4768;42.664;23.240;2022-07-04T08:26:09;5.82;;;4.20;;
9459;SDS011;4768;42.664;23.240;2022-07-04T08:28:36;5.28;;;3.58;;
9459;SDS011;4768;42.664;23.240;2022-07-04T08:31:03;6.82;;;3.53;;
9459;SDS011;4768;42.664;23.240;2022-07-04T08:33:30;6.88;;;3.72;;
9459;SDS011;4768;42.664;23.240;2022-07-04T08:35:57;4.45;;;3.97;;
9459;SDS011;4768;42.664;23.240;2022-07-04T08:38:24;7.40;;;3.88;;
9459;SDS011;4768;42.664;23.240;2022-07-04T08:40:53;5.40;;;4.03;;
9459;SDS011;4768;42.664;23.240;2022-07-04T08:43:23;5.95;;;4.30;;
9459;SDS011;4768;42.664;23.240;2022-07-04T08:45:52;5.22;;;3.47;;
9459;SDS011;4768;42.664;23.240;2022-07-04T08:48:21;6.32;;;4.25;;
9459;SDS011;4768;42.664;23.240;2022-07-04T08:50:51;6.55;;;4.45;;
9459;SDS011;4768;42.664;23.240;2022-07-04T08:53:23;5.57;;;4.65;;
9459;SDS011;4768;42.664;23.240;2022-07-04T08:55:55;5.78;;;4.78;;
9459;SDS011;4768;42.664;23.240;2022-07-04T08:58:40;9.23;;;4.65;;
9459;SDS011;4768;42.664;23.240;2022-07-04T09:01:09;5.72;;;4.95;;
9459;SDS011;4768;42.664;23.240;2022-07-04T09:03:40;8.00;;;4.47;;
9459;SDS011;4768;42.664;23.240;2022-07-04T09:06:08;7.57;;;4.65;;
9459;SDS011;4768;42.664;23.240;2022-07-04T09:08:36;7.28;;;4.32;;
9459;SDS011;4768;42.664;23.240;2022-07-04T09:11:04;6.00;;;4.80;;
9459;SDS011;4768;42.664;23.240;2022-07-04T09:13:31;5.75;;;4.30;;
9459;SDS011;4768;42.664;23.240;2022-07-04T09:15:59;6.68;;;4.40;;
9459;SDS011;4768;42.664;23.240;2022-07-04T09:18:27;7.38;;;4.30;;
9459;SDS011;4768;42.664;23.240;2022-07-04T09:20:56;6.70;;;4.65;;
9459;SDS011;4768;42.664;23.240;2022-07-04T09:23:25;7.95;;;4.82;;
9459;SDS011;4768;42.664;23.240;2022-07-04T09:26:07;5.47;;;4.95;;
9459;SDS011;4768;42.664;23.240;2022-07-04T09:28:37;4.47;;;4.07;;
9459;SDS011;4768;42.664;23.240;2022-07-04T09:31:14;8.63;;;4.68;;
9459;SDS011;4768;42.664;23.240;2022-07-04T09:33:45;5.97;;;4.85;;
9459;SDS011;4768;42.664;23.240;2022-07-04T09:36:14;6.75;;;4.45;;
9459;SDS011;4768;42.664;23.240;2022-07-04T09:38:42;4.90;;;4.40;;
9459;SDS011;4768;42.664;23.240;2022-07-04T09:41:11;5.05;;;4.53;;
9459;SDS011;4768;42.664;23.240;2022-07-04T09:43:58;5.18;;;4.55;;
9459;SDS011;4768;42.664;23.240;2022-07-04T09:46:26;5.10;;;4.60;;
9459;SDS011;4768;42.664;23.240;2022-07-04T09:48:54;8.02;;;4.50;;
9459;SDS011;4768;42.664;23.240;2022-07-04T09:51:36;5.30;;;4.80;;
9459;SDS011;4768;42.664;23.240;2022-07-04T09:54:15;10.18;;;5.32;;
9459;SDS011;4768;42.664;23.240;2022-07-04T09:56:45;5.10;;;4.63;;
9459;SDS011;4768;42.664;23.240;2022-07-04T09:59:13;7.63;;;4.90;;
9459;SDS011;4768;42.664;23.240;2022-07-04T10:01:40;5.20;;;4.70;;
9459;SDS011;4768;42.664;23.240;2022-07-04T10:04:07;6.03;;;5.03;;
9459;SDS011;4768;42.664;23.240;2022-07-04T10:06:34;6.22;;;5.10;;
9459;SDS011;4768;42.664;23.240;2022-07-04T10:09:09;5.38;;;4.88;;
9459;SDS011;4768;42.664;23.240;2022-07-04T10:11:38;6.65;;;4.93;;
9459;SDS011;4768;42.664;23.240;2022-07-04T10:14:08;8.20;;;5.28;;
9459;SDS011;4768;42.664;23.240;2022-07-04T10:16:35;8.55;;;4.97;;
9459;SDS011;4768;42.664;23.240;2022-07-04T10:19:03;5.85;;;5.25;;
9459;SDS011;4768;42.664;23.240;2022-07-04T10:21:31;8.63;;;5.30;;
9459;SDS011;4768;42.664;23.240;2022-07-04T10:23:58;5.97;;;5.38;;
9459;SDS011;4768;42.664;23.240;2022-07-04T10:26:27;5.47;;;4.88;;
9459;SDS011;4768;42.664;23.240;2022-07-04T10:28:54;7.00;;;5.00;;
9459;SDS011;4768;42.664;23.240;2022-07-04T10:31:24;6.15;;;4.90;;
9459;SDS011;4768;42.664;23.240;2022-07-04T10:33:52;5.47;;;4.97;;
9459;SDS011;4768;42.664;23.240;2022-07-04T10:36:22;5.00;;;4.60;;
9459;SDS011;4768;42.664;23.240;2022-07-04T10:38:53;6.85;;;5.40;;
9459;SDS011;4768;42.664;23.240;2022-07-04T10:41:24;7.82;;;5.07;;
9459;SDS011;4768;42.664;23.240;2022-07-04T10:43:52;5.32;;;4.72;;
9459;SDS011;4768;42.664;23.240;2022-07-04T10:46:36;5.47;;;4.97;;
9459;SDS011;4768;42.664;23.240;2022-07-04T10:49:23;5.72;;;5.00;;
9459;SDS011;4768;42.664;23.240;2022-07-04T10:51:51;5.53;;;5.03;;
9459;SDS011;4768;42.664;23.240;2022-07-04T10:54:20;5.63;;;5.00;;
9459;SDS011;4768;42.664;23.240;2022-07-04T10:56:54;5.97;;;4.97;;
9459;SDS011;4768;42.664;23.240;2022-07-04T10:59:23;6.97;;;4.50;;
9459;SDS011;4768;42.664;23.240;2022-07-04T11:04:59;5.68;;;5.00;;
9459;SDS011;4768;42.664;23.240;2022-07-04T11:10:23;7.50;;;5.07;;
9459;SDS011;4768;42.664;23.240;2022-07-04T11:16:01;9.77;;;5.30;;
9459;SDS011;4768;42.664;23.240;2022-07-04T11:18:42;8.43;;;5.30;;
9459;SDS011;4768;42.664;23.240;2022-07-04T11:21:19;5.28;;;4.72;;
9459;SDS011;4768;42.664;23.240;2022-07-04T11:23:54;10.90;;;5.05;;
9459;SDS011;4768;42.664;23.240;2022-07-04T11:26:22;10.10;;;5.30;;
9459;SDS011;4768;42.664;23.240;2022-07-04T11:28:49;6.40;;;5.18;;
9459;SDS011;4768;42.664;23.240;2022-07-04T11:31:16;9.70;;;5.35;;
9459;SDS011;4768;42.664;23.240;2022-07-04T11:33:44;7.25;;;5.78;;
9459;SDS011;4768;42.664;23.240;2022-07-04T11:36:13;8.55;;;4.88;;
9459;SDS011;4768;42.664;23.240;2022-07-04T11:38:46;7.45;;;5.22;;
9459;SDS011;4768;42.664;23.240;2022-07-04T11:41:19;6.63;;;5.38;;
9459;SDS011;4768;42.664;23.240;2022-07-04T11:44:05;6.35;;;5.72;;
9459;SDS011;4768;42.664;23.240;2022-07-04T11:47:00;7.90;;;4.85;;
9459;SDS011;4768;42.664;23.240;2022-07-04T11:49:29;10.82;;;4.95;;
9459;SDS011;4768;42.664;23.240;2022-07-04T11:51:56;5.68;;;5.13;;
9459;SDS011;4768;42.664;23.240;2022-07-04T11:54:23;8.90;;;5.68;;
9459;SDS011;4768;42.664;23.240;2022-07-04T11:56:50;7.60;;;5.13;;
9459;SDS011;4768;42.664;23.240;2022-07-04T11:59:17;6.30;;;5.53;;
9459;SDS011;4768;42.664;23.240;2022-07-04T12:01:44;6.32;;;5.28;;
9459;SDS011;4768;42.664;23.240;2022-07-04T12:04:15;5.93;;;5.18;;
9459;SDS011;4768;42.664;23.240;2022-07-04T12:06:45;5.68;;;5.18;;
9459;SDS011;4768;42.664;23.240;2022-07-04T12:09:12;6.65;;;5.50;;
9459;SDS011;4768;42.664;23.240;2022-07-04T12:11:54;5.65;;;5.15;;
9459;SDS011;4768;42.664;23.240;2022-07-04T12:14:23;7.15;;;4.97;;
9459;SDS011;4768;42.664;23.240;2022-07-04T12:19:36;5.45;;;5.00;;
9459;SDS011;4768;42.664;23.240;2022-07-04T12:22:04;5.80;;;5.28;;
9459;SDS011;4768;42.664;23.240;2022-07-04T12:24:40;6.85;;;5.50;;
9459;SDS011;4768;42.664;23.240;2022-07-04T12:27:15;8.25;;;5.47;;
9459;SDS011;4768;42.664;23.240;2022-07-04T12:29:46;6.05;;;4.95;;
9459;SDS011;4768;42.664;23.240;2022-07-04T12:32:14;5.72;;;5.20;;
9459;SDS011;4768;42.664;23.240;2022-07-04T12:34:41;5.30;;;4.80;;
9459;SDS011;4768;42.664;23.240;2022-07-04T12:37:09;8.75;;;4.85;;
9459;SDS011;4768;42.664;23.240;2022-07-04T12:39:38;8.00;;;5.05;;
9459;SDS011;4768;42.664;23.240;2022-07-04T12:42:06;6.85;;;5.18;;
9459;SDS011;4768;42.664;23.240;2022-07-04T12:44:34;6.65;;;5.45;;
9459;SDS011;4768;42.664;23.240;2022-07-04T12:47:01;5.72;;;5.22;;
9459;SDS011;4768;42.664;23.240;2022-07-04T12:49:29;6.57;;;5.78;;
9459;SDS011;4768;42.664;23.240;2022-07-04T12:52:10;5.55;;;5.00;;
9459;SDS011;4768;42.664;23.240;2022-07-04T12:54:38;6.60;;;5.80;;
9459;SDS011;4768;42.664;23.240;2022-07-04T12:57:06;5.72;;;5.05;;
9459;SDS011;4768;42.664;23.240;2022-07-04T12:59:36;5.95;;;5.45;;
9459;SDS011;4768;42.664;23.240;2022-07-04T13:02:03;5.80;;;5.22;;
9459;SDS011;4768;42.664;23.240;2022-07-04T13:04:30;9.40;;;5.63;;
9459;SDS011;4768;42.664;23.240;2022-07-04T13:06:58;5.68;;;5.05;;
9459;SDS011;4768;42.664;23.240;2022-07-04T13:09:27;7.47;;;5.30;;
9459;SDS011;4768;42.664;23.240;2022-07-04T13:11:54;5.65;;;5.15;;
9459;SDS011;4768;42.664;23.240;2022-07-04T13:14:38;6.88;;;5.22;;
9459;SDS011;4768;42.664;23.240;2022-07-04T13:17:04;8.35;;;5.57;;
9459;SDS011;4768;42.664;23.240;2022-07-04T13:19:31;6.00;;;4.95;;
9459;SDS011;4768;42.664;23.240;2022-07-04T13:21:58;9.15;;;5.43;;
9459;SDS011;4768;42.664;23.240;2022-07-04T13:24:25;5.88;;;5.38;;
9459;SDS011;4768;42.664;23.240;2022-07-04T13:26:53;8.18;;;5.28;;
9459;SDS011;4768;42.664;23.240;2022-07-04T13:29:19;5.80;;;5.30;;
9459;SDS011;4768;42.664;23.240;2022-07-04T13:31:47;5.95;;;5.35;;
9459;SDS011;4768;42.664;23.240;2022-07-04T13:34:14;5.97;;;5.47;;
9459;SDS011;4768;42.664;23.240;2022-07-04T13:36:41;6.20;;;5.70;;
9459;SDS011;4768;42.664;23.240;2022-07-04T13:39:08;5.95;;;5.35;;
9459;SDS011;4768;42.664;23.240;2022-07-04T13:41:37;5.30;;;4.80;;
9459;SDS011;4768;42.664;23.240;2022-07-04T13:44:05;6.07;;;5.47;;
9459;SDS011;4768;42.664;23.240;2022-07-04T13:46:33;6.85;;;5.90;;
9459;SDS011;4768;42.664;23.240;2022-07-04T13:49:01;6.25;;;5.53;;
9459;SDS011;4768;42.664;23.240;2022-07-04T13:51:28;5.60;;;5.00;;
9459;SDS011;4768;42.664;23.240;2022-07-04T13:53:55;7.75;;;5.05;;
9459;SDS011;4768;42.664;23.240;2022-07-04T13:56:22;6.38;;;5.22;;
9459;SDS011;4768;42.664;23.240;2022-07-04T13:58:50;8.70;;;5.78;;
9459;SDS011;4768;42.664;23.240;2022-07-04T14:01:17;6.03;;;5.43;;
9459;SDS011;4768;42.664;23.240;2022-07-04T14:03:45;6.10;;;5.60;;
9459;SDS011;4768;42.664;23.240;2022-07-04T14:06:12;6.28;;;5.68;;
9459;SDS011;4768;42.664;23.240;2022-07-04T14:08:39;9.50;;;4.90;;
9459;SDS011;4768;42.664;23.240;2022-07-04T14:11:06;7.80;;;5.57;;
9459;SDS011;4768;42.664;23.240;2022-07-04T14:13:33;7.70;;;5.25;;
9459;SDS011;4768;42.664;23.240;2022-07-04T14:16:01;7.65;;;6.10;;
9459;SDS011;4768;42.664;23.240;2022-07-04T14:18:31;5.60;;;5.00;;
9459;SDS011;4768;42.664;23.240;2022-07-04T14:20:58;5.60;;;5.10;;
9459;SDS011;4768;42.664;23.240;2022-07-04T14:23:25;6.85;;;6.15;;
9459;SDS011;4768;42.664;23.240;2022-07-04T14:26:06;7.03;;;5.15;;
9459;SDS011;4768;42.664;23.240;2022-07-04T14:28:34;7.50;;;5.32;;
9459;SDS011;4768;42.664;23.240;2022-07-04T14:31:02;7.55;;;5.75;;
9459;SDS011;4768;42.664;23.240;2022-07-04T14:33:29;7.75;;;5.82;;
9459;SDS011;4768;42.664;23.240;2022-07-04T14:35:57;8.45;;;5.88;;
9459;SDS011;4768;42.664;23.240;2022-07-04T14:38:24;5.70;;;5.10;;
9459;SDS011;4768;42.664;23.240;2022-07-04T14:40:51;5.90;;;5.30;;
9459;SDS011;4768;42.664;23.240;2022-07-04T14:43:18;7.18;;;5.43;;
9459;SDS011;4768;42.664;23.240;2022-07-04T14:45:45;6.20;;;5.45;;
9459;SDS011;4768;42.664;23.240;2022-07-04T14:48:14;6.43;;;5.30;;
9459;SDS011;4768;42.664;23.240;2022-07-04T14:50:41;6.45;;;5.22;;
9459;SDS011;4768;42.664;23.240;2022-07-04T14:53:07;7.13;;;5.28;;
9459;SDS011;4768;42.664;23.240;2022-07-04T14:55:34;7.25;;;5.60;;
9459;SDS011;4768;42.664;23.240;2022-07-04T14:58:01;6.30;;;5.70;;
9459;SDS011;4768;42.664;23.240;2022-07-04T15:00:28;6.18;;;5.03;;
9459;SDS011;4768;42.664;23.240;2022-07-04T15:02:54;5.55;;;5.05;;
9459;SDS011;4768;42.664;23.240;2022-07-04T15:05:22;6.35;;;5.70;;
9459;SDS011;4768;42.664;23.240;2022-07-04T15:07:49;7.03;;;5.22;;
9459;SDS011;4768;42.664;23.240;2022-07-04T15:10:16;6.70;;;5.88;;
9459;SDS011;4768;42.664;23.240;2022-07-04T15:12:42;6.60;;;5.20;;
9459;SDS011;4768;42.664;23.240;2022-07-04T15:15:10;8.32;;;5.47;;
9459;SDS011;4768;42.664;23.240;2022-07-04T15:17:36;6.10;;;5.10;;
9459;SDS011;4768;42.664;23.240;2022-07-04T15:20:04;6.20;;;5.43;;